sensor_id;sensor_type;location;lat;lon;timestamp;P1;durP1;ratioP1;P2;durP2;ratioP2
9413;SDS011;4746;35.664;139.738;2023-01-13T00:01:25;6.00;;;5.40;;
9413;SDS011;4746;35.664;139.738;2023-01-13T00:03:55;6.27;;;5.17;;
9413;SDS011;4746;35.664;139.738;2023-01-13T00:06:24;6.63;;;5.07;;
9413;SDS011;4746;35.664;139.738;2023-01-13T00:08:52;7.97;;;6.07;;
9413;SDS011;4746;35.664;139.738;2023-01-13T00:11:22;6.40;;;5.70;;
9413;SDS011;4746;35.664;139.738;2023-01-13T00:13:50;6.03;;;5.53;;
9413;SDS011;4746;35.664;139.738;2023-01-13T00:16:19;10.00;;;5.77;;
9413;SDS011;4746;35.664;139.738;2023-01-13T00:18:47;7.27;;;5.37;;
9413;SDS011;4746;35.664;139.738;2023-01-13T00:21:19;9.00;;;5.17;;
9413;SDS011;4746;35.664;139.738;2023-01-13T00:23:50;7.43;;;5.67;;
9413;SDS011;4746;35.664;139.738;2023-01-13T00:26:20;6.57;;;5.20;;
9413;SDS011;4746;35.664;139.738;2023-01-13T00:28:58;7.13;;;5.87;;
9413;SDS011;4746;35.664;139.738;2023-01-13T00:31:27;8.30;;;5.57;;
9413;SDS011;4746;35.664;139.738;2023-01-13T00:33:55;7.93;;;5.40;;
9413;SDS011;4746;35.664;139.738;2023-01-13T00:36:27;6.00;;;5.50;;
9413;SDS011;4746;35.664;139.738;2023-01-13T00:38:55;6.13;;;5.17;;
9413;SDS011;4746;35.664;139.738;2023-01-13T00:41:24;7.20;;;5.43;;
9413;SDS011;4746;35.664;139.738;2023-01-13T00:43:53;8.47;;;5.30;;
9413;SDS011;4746;35.664;139.738;2023-01-13T00:46:21;5.43;;;4.90;;
9413;SDS011;4746;35.664;139.738;2023-01-13T00:48:48;5.77;;;5.17;;
9413;SDS011;4746;35.664;139.738;2023-01-13T00:51:17;5.33;;;4.87;;
9413;SDS011;4746;35.664;139.738;2023-01-13T00:53:50;9.90;;;5.63;;
9413;SDS011;4746;35.664;139.738;2023-01-13T00:56:21;7.10;;;5.77;;
9413;SDS011;4746;35.664;139.738;2023-01-13T00:58:50;6.53;;;5.83;;
9413;SDS011;4746;35.664;139.738;2023-01-13T01:01:20;6.70;;;6.00;;
9413;SDS011;4746;35.664;139.738;2023-01-13T01:03:50;7.27;;;5.67;;
9413;SDS011;4746;35.664;139.738;2023-01-13T01:06:23;6.47;;;5.87;;
9413;SDS011;4746;35.664;139.738;2023-01-13T01:08:52;6.60;;;6.10;;
9413;SDS011;4746;35.664;139.738;2023-01-13T01:11:23;7.23;;;6.17;;
9413;SDS011;4746;35.664;139.738;2023-01-13T01:13:55;7.40;;;6.37;;
9413;SDS011;4746;35.664;139.738;2023-01-13T01:16:27;7.97;;;6.23;;
9413;SDS011;4746;35.664;139.738;2023-01-13T01:18:57;6.60;;;6.00;;
9413;SDS011;4746;35.664;139.738;2023-01-13T01:21:26;7.57;;;5.93;;
9413;SDS011;4746;35.664;139.738;2023-01-13T01:23:54;7.10;;;6.37;;
9413;SDS011;4746;35.664;139.738;2023-01-13T01:26:26;6.70;;;6.00;;
9413;SDS011;4746;35.664;139.738;2023-01-13T01:28:55;6.83;;;6.23;;
9413;SDS011;4746;35.664;139.738;2023-01-13T01:31:24;7.00;;;5.70;;
9413;SDS011;4746;35.664;139.738;2023-01-13T01:33:59;7.57;;;6.70;;
9413;SDS011;4746;35.664;139.738;2023-01-13T01:36:27;6.60;;;5.93;;
9413;SDS011;4746;35.664;139.738;2023-01-13T01:38:56;6.70;;;6.07;;
9413;SDS011;4746;35.664;139.738;2023-01-13T01:41:25;7.37;;;6.67;;
9413;SDS011;4746;35.664;139.738;2023-01-13T01:44:01;6.17;;;5.57;;
9413;SDS011;4746;35.664;139.738;2023-01-13T01:47:14;9.83;;;6.53;;
9413;SDS011;4746;35.664;139.738;2023-01-13T01:49:45;17.57;;;6.23;;
9413;SDS011;4746;35.664;139.738;2023-01-13T01:52:19;10.03;;;6.87;;
9413;SDS011;4746;35.664;139.738;2023-01-13T01:54:59;8.50;;;6.57;;
9413;SDS011;4746;35.664;139.738;2023-01-13T01:57:37;8.37;;;6.27;;
9413;SDS011;4746;35.664;139.738;2023-01-13T02:00:40;6.97;;;6.27;;
9413;SDS011;4746;35.664;139.738;2023-01-13T02:03:07;8.90;;;6.83;;
9413;SDS011;4746;35.664;139.738;2023-01-13T02:05:36;8.10;;;7.27;;
9413;SDS011;4746;35.664;139.738;2023-01-13T02:08:04;9.33;;;7.47;;
9413;SDS011;4746;35.664;139.738;2023-01-13T02:10:36;8.93;;;8.03;;
9413;SDS011;4746;35.664;139.738;2023-01-13T02:13:07;10.83;;;7.70;;
9413;SDS011;4746;35.664;139.738;2023-01-13T02:15:43;14.83;;;8.17;;
9413;SDS011;4746;35.664;139.738;2023-01-13T02:27:58;9.50;;;8.13;;
9413;SDS011;4746;35.664;139.738;2023-01-13T02:30:48;9.73;;;8.13;;
9413;SDS011;4746;35.664;139.738;2023-01-13T02:34:09;10.27;;;7.40;;
9413;SDS011;4746;35.664;139.738;2023-01-13T02:37:03;7.67;;;6.97;;
9413;SDS011;4746;35.664;139.738;2023-01-13T02:39:53;9.53;;;8.57;;
9413;SDS011;4746;35.664;139.738;2023-01-13T02:42:34;9.37;;;7.57;;
9413;SDS011;4746;35.664;139.738;2023-01-13T02:46:33;10.20;;;8.50;;
9413;SDS011;4746;35.664;139.738;2023-01-13T02:49:05;10.93;;;9.43;;
9413;SDS011;4746;35.664;139.738;2023-01-13T02:51:39;10.70;;;9.20;;
9413;SDS011;4746;35.664;139.738;2023-01-13T02:54:12;10.80;;;9.43;;
9413;SDS011;4746;35.664;139.738;2023-01-13T02:56:49;10.27;;;9.27;;
9413;SDS011;4746;35.664;139.738;2023-01-13T02:59:20;12.23;;;9.90;;
9413;SDS011;4746;35.664;139.738;2023-01-13T03:01:51;10.23;;;9.23;;
9413;SDS011;4746;35.664;139.738;2023-01-13T03:04:43;12.23;;;9.73;;
9413;SDS011;4746;35.664;139.738;2023-01-13T03:24:58;15.97;;;13.10;;
9413;SDS011;4746;35.664;139.738;2023-01-13T03:27:46;14.27;;;12.87;;
9413;SDS011;4746;35.664;139.738;2023-01-13T03:30:38;14.33;;;13.00;;
9413;SDS011;4746;35.664;139.738;2023-01-13T03:33:35;15.00;;;11.67;;
9413;SDS011;4746;35.664;139.738;2023-01-13T03:36:16;13.97;;;12.50;;
9413;SDS011;4746;35.664;139.738;2023-01-13T03:38:51;14.53;;;12.93;;
9413;SDS011;4746;35.664;139.738;2023-01-13T03:44:19;13.20;;;11.98;;
9413;SDS011;4746;35.664;139.738;2023-01-13T03:50:14;14.32;;;12.73;;
9413;SDS011;4746;35.664;139.738;2023-01-13T03:55:40;13.57;;;12.15;;
9413;SDS011;4746;35.664;139.738;2023-01-13T03:58:23;14.18;;;12.93;;
9413;SDS011;4746;35.664;139.738;2023-01-13T04:01:22;13.55;;;12.40;;
9413;SDS011;4746;35.664;139.738;2023-01-13T04:04:03;14.93;;;13.38;;
9413;SDS011;4746;35.664;139.738;2023-01-13T04:07:12;14.57;;;13.02;;
9413;SDS011;4746;35.664;139.738;2023-01-13T04:09:56;15.07;;;13.70;;
9413;SDS011;4746;35.664;139.738;2023-01-13T04:12:34;15.93;;;14.23;;
9413;SDS011;4746;35.664;139.738;2023-01-13T04:15:44;15.57;;;13.90;;
9413;SDS011;4746;35.664;139.738;2023-01-13T04:18:17;16.92;;;13.35;;
9413;SDS011;4746;35.664;139.738;2023-01-13T04:20:51;17.77;;;14.57;;
9413;SDS011;4746;35.664;139.738;2023-01-13T04:23:25;15.75;;;14.10;;
9413;SDS011;4746;35.664;139.738;2023-01-13T04:25:54;17.35;;;14.25;;
9413;SDS011;4746;35.664;139.738;2023-01-13T04:28:21;17.90;;;14.93;;
9413;SDS011;4746;35.664;139.738;2023-01-13T04:30:50;15.52;;;13.57;;
9413;SDS011;4746;35.664;139.738;2023-01-13T04:33:18;17.77;;;14.70;;
9413;SDS011;4746;35.664;139.738;2023-01-13T04:35:46;18.98;;;14.88;;
9413;SDS011;4746;35.664;139.738;2023-01-13T04:38:15;17.73;;;15.37;;
9413;SDS011;4746;35.664;139.738;2023-01-13T04:40:45;17.15;;;15.32;;
9413;SDS011;4746;35.664;139.738;2023-01-13T04:43:13;17.27;;;15.27;;
9413;SDS011;4746;35.664;139.738;2023-01-13T04:45:42;19.00;;;16.67;;
9413;SDS011;4746;35.664;139.738;2023-01-13T04:48:10;17.70;;;15.57;;
9413;SDS011;4746;35.664;139.738;2023-01-13T04:50:38;21.20;;;16.50;;
9413;SDS011;4746;35.664;139.738;2023-01-13T04:53:06;19.17;;;15.80;;
9413;SDS011;4746;35.664;139.738;2023-01-13T04:55:33;18.10;;;16.20;;
9413;SDS011;4746;35.664;139.738;2023-01-13T04:58:04;19.93;;;16.53;;
9413;SDS011;4746;35.664;139.738;2023-01-13T05:00:34;18.23;;;16.50;;
9413;SDS011;4746;35.664;139.738;2023-01-13T05:03:03;21.93;;;17.40;;
9413;SDS011;4746;35.664;139.738;2023-01-13T05:05:31;17.63;;;15.97;;
9413;SDS011;4746;35.664;139.738;2023-01-13T05:07:59;19.07;;;17.13;;
9413;SDS011;4746;35.664;139.738;2023-01-13T05:10:26;21.53;;;16.90;;
9413;SDS011;4746;35.664;139.738;2023-01-13T05:12:54;19.13;;;15.97;;
9413;SDS011;4746;35.664;139.738;2023-01-13T05:15:40;21.63;;;16.90;;
9413;SDS011;4746;35.664;139.738;2023-01-13T05:18:27;21.30;;;16.77;;
9413;SDS011;4746;35.664;139.738;2023-01-13T05:20:56;20.63;;;18.60;;
9413;SDS011;4746;35.664;139.738;2023-01-13T05:23:23;22.67;;;17.07;;
9413;SDS011;4746;35.664;139.738;2023-01-13T05:26:09;21.67;;;17.97;;
9413;SDS011;4746;35.664;139.738;2023-01-13T05:28:37;22.40;;;17.17;;
9413;SDS011;4746;35.664;139.738;2023-01-13T05:31:04;22.33;;;20.00;;
9413;SDS011;4746;35.664;139.738;2023-01-13T05:33:32;20.65;;;18.45;;
9413;SDS011;4746;35.664;139.738;2023-01-13T05:36:00;20.23;;;17.60;;
9413;SDS011;4746;35.664;139.738;2023-01-13T05:38:30;23.67;;;19.27;;
9413;SDS011;4746;35.664;139.738;2023-01-13T05:40:58;21.70;;;19.42;;
9413;SDS011;4746;35.664;139.738;2023-01-13T05:43:43;22.75;;;18.83;;
9413;SDS011;4746;35.664;139.738;2023-01-13T05:46:11;24.05;;;19.88;;
9413;SDS011;4746;35.664;139.738;2023-01-13T05:48:40;22.58;;;20.23;;
9413;SDS011;4746;35.664;139.738;2023-01-13T05:51:09;21.42;;;19.13;;
9413;SDS011;4746;35.664;139.738;2023-01-13T05:53:38;21.10;;;18.52;;
9413;SDS011;4746;35.664;139.738;2023-01-13T05:56:06;26.90;;;19.75;;
9413;SDS011;4746;35.664;139.738;2023-01-13T05:58:35;25.30;;;19.93;;
9413;SDS011;4746;35.664;139.738;2023-01-13T06:01:04;22.50;;;20.10;;
9413;SDS011;4746;35.664;139.738;2023-01-13T06:03:33;23.17;;;20.53;;
9413;SDS011;4746;35.664;139.738;2023-01-13T06:06:02;24.03;;;20.97;;
9413;SDS011;4746;35.664;139.738;2023-01-13T06:08:33;24.80;;;21.63;;
9413;SDS011;4746;35.664;139.738;2023-01-13T06:11:00;24.17;;;21.53;;
9413;SDS011;4746;35.664;139.738;2023-01-13T06:13:28;24.07;;;21.53;;
9413;SDS011;4746;35.664;139.738;2023-01-13T06:15:56;23.47;;;21.07;;
9413;SDS011;4746;35.664;139.738;2023-01-13T06:18:24;23.80;;;21.47;;
9413;SDS011;4746;35.664;139.738;2023-01-13T06:20:53;23.67;;;21.47;;
9413;SDS011;4746;35.664;139.738;2023-01-13T06:23:21;21.70;;;19.50;;
9413;SDS011;4746;35.664;139.738;2023-01-13T06:26:35;26.73;;;21.83;;
9413;SDS011;4746;35.664;139.738;2023-01-13T06:28:41;25.53;;;22.17;;
9413;SDS011;4746;35.664;139.738;2023-01-13T06:31:08;23.40;;;20.90;;
9413;SDS011;4746;35.664;139.738;2023-01-13T06:33:42;25.87;;;22.40;;
9413;SDS011;4746;35.664;139.738;2023-01-13T06:36:19;26.37;;;22.47;;
9413;SDS011;4746;35.664;139.738;2023-01-13T06:39:03;28.77;;;21.27;;
9413;SDS011;4746;35.664;139.738;2023-01-13T06:41:33;28.37;;;22.50;;
9413;SDS011;4746;35.664;139.738;2023-01-13T06:44:19;24.57;;;21.10;;
9413;SDS011;4746;35.664;139.738;2023-01-13T06:46:50;23.93;;;21.30;;
9413;SDS011;4746;35.664;139.738;2023-01-13T06:49:17;24.13;;;21.33;;
9413;SDS011;4746;35.664;139.738;2023-01-13T06:51:45;26.60;;;21.03;;
9413;SDS011;4746;35.664;139.738;2023-01-13T06:54:13;28.57;;;21.93;;
9413;SDS011;4746;35.664;139.738;2023-01-13T06:56:40;26.03;;;21.80;;
9413;SDS011;4746;35.664;139.738;2023-01-13T06:59:08;24.50;;;21.50;;
9413;SDS011;4746;35.664;139.738;2023-01-13T07:01:35;25.27;;;21.10;;
9413;SDS011;4746;35.664;139.738;2023-01-13T07:04:03;27.67;;;22.10;;
9413;SDS011;4746;35.664;139.738;2023-01-13T07:06:31;24.57;;;21.70;;
9413;SDS011;4746;35.664;139.738;2023-01-13T07:08:58;31.67;;;21.37;;
9413;SDS011;4746;35.664;139.738;2023-01-13T07:11:25;25.37;;;21.67;;
9413;SDS011;4746;35.664;139.738;2023-01-13T07:13:53;25.07;;;21.80;;
9413;SDS011;4746;35.664;139.738;2023-01-13T07:16:38;26.67;;;20.83;;
9413;SDS011;4746;35.664;139.738;2023-01-13T07:19:09;22.60;;;19.23;;
9413;SDS011;4746;35.664;139.738;2023-01-13T07:21:36;24.20;;;21.00;;
9413;SDS011;4746;35.664;139.738;2023-01-13T07:24:04;21.57;;;19.37;;
9413;SDS011;4746;35.664;139.738;2023-01-13T07:26:32;21.23;;;18.37;;
9413;SDS011;4746;35.664;139.738;2023-01-13T07:28:59;22.37;;;19.00;;
9413;SDS011;4746;35.664;139.738;2023-01-13T07:31:27;25.30;;;20.00;;
9413;SDS011;4746;35.664;139.738;2023-01-13T07:33:55;24.07;;;20.67;;
9413;SDS011;4746;35.664;139.738;2023-01-13T07:36:22;24.57;;;19.20;;
9413;SDS011;4746;35.664;139.738;2023-01-13T07:38:50;23.07;;;20.67;;
9413;SDS011;4746;35.664;139.738;2023-01-13T07:41:17;24.93;;;21.17;;
9413;SDS011;4746;35.664;139.738;2023-01-13T07:44:03;25.50;;;21.60;;
9413;SDS011;4746;35.664;139.738;2023-01-13T07:46:32;24.77;;;20.03;;
9413;SDS011;4746;35.664;139.738;2023-01-13T07:48:59;22.83;;;20.53;;
9413;SDS011;4746;35.664;139.738;2023-01-13T07:51:27;23.47;;;20.37;;
9413;SDS011;4746;35.664;139.738;2023-01-13T07:53:55;23.87;;;21.27;;
9413;SDS011;4746;35.664;139.738;2023-01-13T07:56:23;26.70;;;22.33;;
9413;SDS011;4746;35.664;139.738;2023-01-13T07:58:51;28.43;;;22.40;;
9413;SDS011;4746;35.664;139.738;2023-01-13T08:01:18;26.43;;;21.50;;
9413;SDS011;4746;35.664;139.738;2023-01-13T08:03:47;23.93;;;21.43;;
9413;SDS011;4746;35.664;139.738;2023-01-13T08:06:15;24.17;;;21.23;;
9413;SDS011;4746;35.664;139.738;2023-01-13T08:08:43;27.23;;;21.27;;
9413;SDS011;4746;35.664;139.738;2023-01-13T08:11:10;23.43;;;21.00;;
9413;SDS011;4746;35.664;139.738;2023-01-13T08:13:38;28.30;;;21.10;;
9413;SDS011;4746;35.664;139.738;2023-01-13T08:16:06;23.87;;;21.47;;
9413;SDS011;4746;35.664;139.738;2023-01-13T08:18:38;21.90;;;19.67;;
9413;SDS011;4746;35.664;139.738;2023-01-13T08:21:08;22.30;;;20.03;;
9413;SDS011;4746;35.664;139.738;2023-01-13T08:23:39;27.93;;;22.07;;
9413;SDS011;4746;35.664;139.738;2023-01-13T08:26:10;24.33;;;20.63;;
9413;SDS011;4746;35.664;139.738;2023-01-13T08:28:41;23.10;;;20.63;;
9413;SDS011;4746;35.664;139.738;2023-01-13T08:31:11;22.33;;;19.37;;
9413;SDS011;4746;35.664;139.738;2023-01-13T08:33:41;22.70;;;20.17;;
9413;SDS011;4746;35.664;139.738;2023-01-13T08:36:09;21.57;;;19.13;;
9413;SDS011;4746;35.664;139.738;2023-01-13T08:38:38;21.83;;;19.63;;
9413;SDS011;4746;35.664;139.738;2023-01-13T08:41:10;20.70;;;18.50;;
9413;SDS011;4746;35.664;139.738;2023-01-13T08:44:04;20.07;;;18.07;;
9413;SDS011;4746;35.664;139.738;2023-01-13T08:46:34;21.30;;;18.90;;
9413;SDS011;4746;35.664;139.738;2023-01-13T08:49:02;21.40;;;19.17;;
9413;SDS011;4746;35.664;139.738;2023-01-13T08:51:30;20.53;;;18.30;;
9413;SDS011;4746;35.664;139.738;2023-01-13T08:53:58;20.53;;;18.37;;
9413;SDS011;4746;35.664;139.738;2023-01-13T08:56:27;20.43;;;18.27;;
9413;SDS011;4746;35.664;139.738;2023-01-13T08:58:59;22.57;;;18.37;;
9413;SDS011;4746;35.664;139.738;2023-01-13T09:01:26;21.83;;;19.23;;
9413;SDS011;4746;35.664;139.738;2023-01-13T09:03:58;20.60;;;18.70;;
9413;SDS011;4746;35.664;139.738;2023-01-13T09:06:26;21.57;;;19.33;;
9413;SDS011;4746;35.664;139.738;2023-01-13T09:08:54;22.13;;;18.13;;
9413;SDS011;4746;35.664;139.738;2023-01-13T09:11:25;19.83;;;17.73;;
9413;SDS011;4746;35.664;139.738;2023-01-13T09:14:18;22.83;;;19.60;;
9413;SDS011;4746;35.664;139.738;2023-01-13T09:16:48;20.90;;;18.60;;
9413;SDS011;4746;35.664;139.738;2023-01-13T09:19:16;20.43;;;18.57;;
9413;SDS011;4746;35.664;139.738;2023-01-13T09:21:43;20.63;;;18.63;;
9413;SDS011;4746;35.664;139.738;2023-01-13T09:24:11;22.60;;;20.37;;
9413;SDS011;4746;35.664;139.738;2023-01-13T09:26:40;25.17;;;22.53;;
9413;SDS011;4746;35.664;139.738;2023-01-13T09:29:08;24.47;;;22.17;;
9413;SDS011;4746;35.664;139.738;2023-01-13T09:31:37;25.83;;;22.43;;
9413;SDS011;4746;35.664;139.738;2023-01-13T09:34:05;25.13;;;22.57;;
9413;SDS011;4746;35.664;139.738;2023-01-13T09:36:56;26.93;;;22.37;;
9413;SDS011;4746;35.664;139.738;2023-01-13T09:39:24;24.57;;;22.13;;
9413;SDS011;4746;35.664;139.738;2023-01-13T09:41:55;28.47;;;22.50;;
9413;SDS011;4746;35.664;139.738;2023-01-13T09:48:01;24.30;;;21.13;;
9413;SDS011;4746;35.664;139.738;2023-01-13T09:53:29;24.20;;;21.07;;
9413;SDS011;4746;35.664;139.738;2023-01-13T09:56:41;22.93;;;20.80;;
9413;SDS011;4746;35.664;139.738;2023-01-13T09:59:09;25.23;;;22.70;;
9413;SDS011;4746;35.664;139.738;2023-01-13T10:01:41;27.20;;;21.80;;
9413;SDS011;4746;35.664;139.738;2023-01-13T10:05:00;28.03;;;23.73;;
9413;SDS011;4746;35.664;139.738;2023-01-13T10:07:48;24.13;;;21.03;;
9413;SDS011;4746;35.664;139.738;2023-01-13T10:10:33;25.27;;;22.57;;
9413;SDS011;4746;35.664;139.738;2023-01-13T10:13:15;22.10;;;19.73;;
9413;SDS011;4746;35.664;139.738;2023-01-13T10:16:01;21.33;;;19.03;;
9413;SDS011;4746;35.664;139.738;2023-01-13T10:21:42;21.73;;;18.30;;
9413;SDS011;4746;35.664;139.738;2023-01-13T10:24:49;18.77;;;16.83;;
9413;SDS011;4746;35.664;139.738;2023-01-13T10:27:53;19.17;;;17.10;;
9413;SDS011;4746;35.664;139.738;2023-01-13T10:30:34;19.57;;;17.57;;
9413;SDS011;4746;35.664;139.738;2023-01-13T10:33:09;20.43;;;17.10;;
9413;SDS011;4746;35.664;139.738;2023-01-13T10:35:49;20.70;;;18.60;;
9413;SDS011;4746;35.664;139.738;2023-01-13T10:41:24;21.37;;;18.87;;
9413;SDS011;4746;35.664;139.738;2023-01-13T10:44:12;21.30;;;19.10;;
9413;SDS011;4746;35.664;139.738;2023-01-13T10:46:56;21.47;;;18.87;;
9413;SDS011;4746;35.664;139.738;2023-01-13T10:49:32;20.50;;;18.40;;
9413;SDS011;4746;35.664;139.738;2023-01-13T10:52:03;21.97;;;19.77;;
9413;SDS011;4746;35.664;139.738;2023-01-13T10:54:53;21.70;;;19.40;;
9413;SDS011;4746;35.664;139.738;2023-01-13T10:57:23;21.33;;;19.23;;
9413;SDS011;4746;35.664;139.738;2023-01-13T10:59:53;20.50;;;18.43;;
9413;SDS011;4746;35.664;139.738;2023-01-13T11:02:29;21.03;;;18.47;;
9413;SDS011;4746;35.664;139.738;2023-01-13T11:07:49;14.90;;;13.50;;
9413;SDS011;4746;35.664;139.738;2023-01-13T11:10:24;16.70;;;15.20;;
9413;SDS011;4746;35.664;139.738;2023-01-13T11:13:02;17.73;;;15.13;;
9413;SDS011;4746;35.664;139.738;2023-01-13T11:15:46;16.63;;;14.93;;
9413;SDS011;4746;35.664;139.738;2023-01-13T11:31:23;15.70;;;14.10;;
9413;SDS011;4746;35.664;139.738;2023-01-13T11:34:41;16.83;;;15.23;;
9413;SDS011;4746;35.664;139.738;2023-01-13T11:36:59;15.90;;;14.30;;
9413;SDS011;4746;35.664;139.738;2023-01-13T11:42:29;13.70;;;12.50;;
9413;SDS011;4746;35.664;139.738;2023-01-13T11:47:48;17.03;;;12.80;;
9413;SDS011;4746;35.664;139.738;2023-01-13T11:50:27;12.43;;;11.23;;
9413;SDS011;4746;35.664;139.738;2023-01-13T11:53:26;13.03;;;11.63;;
9413;SDS011;4746;35.664;139.738;2023-01-13T15:51:14;2.33;;;2.13;;
9413;SDS011;4746;35.664;139.738;2023-01-13T15:53:42;3.23;;;2.03;;
9413;SDS011;4746;35.664;139.738;2023-01-13T15:56:27;3.83;;;1.83;;
9413;SDS011;4746;35.664;139.738;2023-01-13T15:58:55;4.03;;;2.30;;
9413;SDS011;4746;35.664;139.738;2023-01-13T16:01:23;2.40;;;2.00;;
9413;SDS011;4746;35.664;139.738;2023-01-13T16:03:50;2.40;;;2.20;;
9413;SDS011;4746;35.664;139.738;2023-01-13T16:06:20;3.10;;;2.53;;
9413;SDS011;4746;35.664;139.738;2023-01-13T16:08:57;3.67;;;2.37;;
9413;SDS011;4746;35.664;139.738;2023-01-13T16:11:25;3.90;;;2.40;;
9413;SDS011;4746;35.664;139.738;2023-01-13T16:13:52;3.50;;;1.90;;
9413;SDS011;4746;35.664;139.738;2023-01-13T16:16:21;2.87;;;2.23;;
9413;SDS011;4746;35.664;139.738;2023-01-13T16:18:53;2.53;;;2.20;;
9413;SDS011;4746;35.664;139.738;2023-01-13T16:21:22;4.80;;;2.17;;
9413;SDS011;4746;35.664;139.738;2023-01-13T16:23:50;2.47;;;2.10;;
9413;SDS011;4746;35.664;139.738;2023-01-13T16:26:22;3.63;;;2.30;;
9413;SDS011;4746;35.664;139.738;2023-01-13T16:28:54;3.43;;;2.27;;
9413;SDS011;4746;35.664;139.738;2023-01-13T16:31:27;2.57;;;2.37;;
9413;SDS011;4746;35.664;139.738;2023-01-13T16:34:00;3.30;;;2.27;;
9413;SDS011;4746;35.664;139.738;2023-01-13T16:36:44;3.00;;;2.23;;
9413;SDS011;4746;35.664;139.738;2023-01-13T16:39:18;3.80;;;2.47;;
9413;SDS011;4746;35.664;139.738;2023-01-13T16:41:47;3.13;;;2.13;;
9413;SDS011;4746;35.664;139.738;2023-01-13T16:44:16;3.90;;;2.53;;
9413;SDS011;4746;35.664;139.738;2023-01-13T16:46:44;2.90;;;1.83;;
9413;SDS011;4746;35.664;139.738;2023-01-13T16:49:12;3.60;;;2.70;;
9413;SDS011;4746;35.664;139.738;2023-01-13T16:51:42;3.17;;;2.17;;
9413;SDS011;4746;35.664;139.738;2023-01-13T16:54:10;4.33;;;2.67;;
9413;SDS011;4746;35.664;139.738;2023-01-13T16:56:42;4.80;;;3.50;;
9413;SDS011;4746;35.664;139.738;2023-01-13T16:59:11;3.77;;;2.10;;
9413;SDS011;4746;35.664;139.738;2023-01-13T17:01:40;5.70;;;2.87;;
9413;SDS011;4746;35.664;139.738;2023-01-13T17:04:13;4.47;;;2.10;;
9413;SDS011;4746;35.664;139.738;2023-01-13T17:09:21;2.70;;;2.03;;
9413;SDS011;4746;35.664;139.738;2023-01-13T17:11:51;4.77;;;2.27;;
9413;SDS011;4746;35.664;139.738;2023-01-13T17:14:21;4.47;;;2.33;;
9413;SDS011;4746;35.664;139.738;2023-01-13T17:16:50;2.07;;;1.80;;
9413;SDS011;4746;35.664;139.738;2023-01-13T17:19:20;3.33;;;2.70;;
9413;SDS011;4746;35.664;139.738;2023-01-13T17:21:49;3.53;;;2.20;;
9413;SDS011;4746;35.664;139.738;2023-01-13T17:24:16;2.57;;;2.37;;
9413;SDS011;4746;35.664;139.738;2023-01-13T17:26:45;3.57;;;2.07;;
9413;SDS011;4746;35.664;139.738;2023-01-13T17:29:16;4.73;;;2.37;;
9413;SDS011;4746;35.664;139.738;2023-01-13T17:31:47;5.37;;;2.13;;
9413;SDS011;4746;35.664;139.738;2023-01-13T17:34:18;4.23;;;2.37;;
9413;SDS011;4746;35.664;139.738;2023-01-13T17:36:47;3.00;;;2.20;;
9413;SDS011;4746;35.664;139.738;2023-01-13T17:39:18;2.60;;;2.40;;
9413;SDS011;4746;35.664;139.738;2023-01-13T17:41:51;3.63;;;2.13;;
9413;SDS011;4746;35.664;139.738;2023-01-13T17:44:20;4.77;;;1.80;;
9413;SDS011;4746;35.664;139.738;2023-01-13T17:46:48;4.57;;;2.20;;
9413;SDS011;4746;35.664;139.738;2023-01-13T17:49:17;3.53;;;2.37;;
9413;SDS011;4746;35.664;139.738;2023-01-13T17:51:46;2.40;;;2.20;;
9413;SDS011;4746;35.664;139.738;2023-01-13T17:54:15;4.00;;;2.30;;
9413;SDS011;4746;35.664;139.738;2023-01-13T17:56:44;2.50;;;2.23;;
9413;SDS011;4746;35.664;139.738;2023-01-13T17:59:13;4.37;;;2.27;;
9413;SDS011;4746;35.664;139.738;2023-01-13T18:01:43;5.50;;;2.60;;
9413;SDS011;4746;35.664;139.738;2023-01-13T18:04:15;4.73;;;2.13;;
9413;SDS011;4746;35.664;139.738;2023-01-13T18:06:47;2.37;;;1.70;;
9413;SDS011;4746;35.664;139.738;2023-01-13T18:09:16;5.47;;;3.10;;
9413;SDS011;4746;35.664;139.738;2023-01-13T18:11:44;4.10;;;2.00;;
9413;SDS011;4746;35.664;139.738;2023-01-13T18:14:11;3.33;;;2.03;;
9413;SDS011;4746;35.664;139.738;2023-01-13T18:16:39;2.73;;;1.50;;
9413;SDS011;4746;35.664;139.738;2023-01-13T18:19:08;2.53;;;1.80;;
9413;SDS011;4746;35.664;139.738;2023-01-13T18:21:54;4.20;;;1.57;;
9413;SDS011;4746;35.664;139.738;2023-01-13T18:24:40;2.60;;;1.83;;
9413;SDS011;4746;35.664;139.738;2023-01-13T18:27:27;2.47;;;1.57;;
9413;SDS011;4746;35.664;139.738;2023-01-13T18:30:01;3.63;;;1.67;;
9413;SDS011;4746;35.664;139.738;2023-01-13T18:32:31;2.37;;;1.80;;
9413;SDS011;4746;35.664;139.738;2023-01-13T18:35:00;3.57;;;1.53;;
9413;SDS011;4746;35.664;139.738;2023-01-13T18:37:35;1.93;;;1.40;;
9413;SDS011;4746;35.664;139.738;2023-01-13T18:40:07;2.63;;;1.53;;
9413;SDS011;4746;35.664;139.738;2023-01-13T18:42:38;2.33;;;1.47;;
9413;SDS011;4746;35.664;139.738;2023-01-13T18:45:19;2.07;;;1.40;;
9413;SDS011;4746;35.664;139.738;2023-01-13T18:47:51;3.33;;;1.77;;
9413;SDS011;4746;35.664;139.738;2023-01-13T18:50:21;3.33;;;1.43;;
9413;SDS011;4746;35.664;139.738;2023-01-13T18:52:49;2.37;;;1.30;;
9413;SDS011;4746;35.664;139.738;2023-01-13T18:55:17;2.83;;;1.50;;
9413;SDS011;4746;35.664;139.738;2023-01-13T18:57:46;4.20;;;1.70;;
9413;SDS011;4746;35.664;139.738;2023-01-13T19:00:15;1.97;;;1.23;;
9413;SDS011;4746;35.664;139.738;2023-01-13T19:02:45;4.10;;;1.50;;
9413;SDS011;4746;35.664;139.738;2023-01-13T19:05:16;1.70;;;1.20;;
9413;SDS011;4746;35.664;139.738;2023-01-13T19:07:44;2.93;;;1.40;;
9413;SDS011;4746;35.664;139.738;2023-01-13T19:10:14;1.20;;;1.10;;
9413;SDS011;4746;35.664;139.738;2023-01-13T19:12:43;1.53;;;1.10;;
9413;SDS011;4746;35.664;139.738;2023-01-13T19:15:10;2.33;;;1.20;;
9413;SDS011;4746;35.664;139.738;2023-01-13T19:17:38;1.03;;;0.90;;
9413;SDS011;4746;35.664;139.738;2023-01-13T19:20:06;2.07;;;1.00;;
9413;SDS011;4746;35.664;139.738;2023-01-13T19:22:35;2.20;;;1.13;;
9413;SDS011;4746;35.664;139.738;2023-01-13T19:25:03;1.20;;;1.00;;
9413;SDS011;4746;35.664;139.738;2023-01-13T19:27:32;1.27;;;1.03;;
9413;SDS011;4746;35.664;139.738;2023-01-13T19:29:59;1.30;;;1.20;;
9413;SDS011;4746;35.664;139.738;2023-01-13T19:32:27;1.07;;;1.03;;
9413;SDS011;4746;35.664;139.738;2023-01-13T19:34:57;1.13;;;0.90;;
9413;SDS011;4746;35.664;139.738;2023-01-13T19:37:25;2.30;;;1.00;;
9413;SDS011;4746;35.664;139.738;2023-01-13T19:39:55;2.83;;;1.17;;
9413;SDS011;4746;35.664;139.738;2023-01-13T19:42:24;0.90;;;0.90;;
9413;SDS011;4746;35.664;139.738;2023-01-13T19:45:13;2.67;;;1.13;;
9413;SDS011;4746;35.664;139.738;2023-01-13T19:47:50;1.57;;;1.30;;
9413;SDS011;4746;35.664;139.738;2023-01-13T19:50:19;3.37;;;1.50;;
9413;SDS011;4746;35.664;139.738;2023-01-13T19:52:46;1.53;;;1.30;;
9413;SDS011;4746;35.664;139.738;2023-01-13T19:55:14;1.47;;;1.20;;
9413;SDS011;4746;35.664;139.738;2023-01-13T19:57:41;3.30;;;1.37;;
9413;SDS011;4746;35.664;139.738;2023-01-13T20:00:09;4.50;;;1.40;;
9413;SDS011;4746;35.664;139.738;2023-01-13T20:02:40;1.43;;;1.33;;
9413;SDS011;4746;35.664;139.738;2023-01-13T20:05:14;1.83;;;1.50;;
9413;SDS011;4746;35.664;139.738;2023-01-13T20:07:46;2.10;;;1.23;;
9413;SDS011;4746;35.664;139.738;2023-01-13T20:10:16;4.27;;;1.50;;
9413;SDS011;4746;35.664;139.738;2023-01-13T20:12:46;1.47;;;1.13;;
9413;SDS011;4746;35.664;139.738;2023-01-13T20:15:14;2.73;;;1.60;;
9413;SDS011;4746;35.664;139.738;2023-01-13T20:17:41;1.93;;;1.40;;